Latest Weather Observations for Cape Nelson

IDV60801

Issued at 9:31 pm EST Wednesday 27 May 2015 (issued every 30 minutes, with the page automatically refreshed every 10 minutes)

About weather observations | Map of weather stations | Latest weather observations for VIC | Other Formats
Station Details ID: 090184 Name: CAPE NELSON LIGHTHOUSE Lat: -38.43 Lon: 141.54 Height: 45.4 m
Data from the previous 72 hours. | See also: Recent months at Cape Nelson
Date/Time
EST
Temp
°C
App
Temp
°C
Dew
Point
Rel
Hum
%
Delta-T
°C
Wind Press
QNH
hPa
Press
MSL
hPa
Rain
since 9 am
mm
Dir
 
Spd
km/h
Gust
km/h
Spd
kts
Gust
kts
27/09:30pm 13.5 10.2 11.7 89 1.0 NNW 20 30 11 16 1015.8 1015.8 2.2
27/09:00pm 13.8 10.2 11.8 88 1.1 NNW 22 32 12 17 1015.9 1015.9 2.2
27/08:30pm 14.0 9.7 12.2 89 1.0 NNW 26 39 14 21 1015.7 1015.7 2.2
27/08:00pm 14.3 10.9 12.5 89 1.0 NNW 22 33 12 18 1015.7 1015.7 2.2
27/07:30pm 14.3 9.8 12.5 89 1.0 NW 28 39 15 21 1015.7 1015.7 2.2
27/07:13pm 14.1 9.5 12.3 89 1.0 NW 28 46 15 25 1015.7 1015.7 2.2
27/07:00pm 14.1 11.3 12.5 90 0.9 NNW 19 26 10 14 1015.6 1015.6 2.2
27/06:30pm 14.0 11.2 12.6 91 0.8 NW 19 28 10 15 1015.6 1015.6 2.2
27/06:00pm 14.1 11.7 12.5 90 0.9 NNW 17 22 9 12 1015.5 1015.5 2.2
27/05:30pm 14.5 12.2 12.9 90 0.9 NNW 17 24 9 13 1015.4 1015.4 2.2
27/05:00pm 14.9 11.8 13.3 90 0.9 NW 22 30 12 16 1015.3 1015.3 2.2
27/04:30pm 15.2 11.8 13.7 91 0.8 NW 24 35 13 19 1015.1 1015.1 2.2
27/04:00pm 15.3 12.3 13.7 90 0.9 NW 22 32 12 17 1015.4 1015.4 2.2
27/03:30pm 15.1 11.6 13.5 90 0.9 NW 24 32 13 17 1015.3 1015.3 2.2
27/03:00pm 15.5 12.7 13.3 87 1.2 NW 20 30 11 16 1015.3 1015.3 0.8
27/02:30pm 16.8 13.0 12.5 76 2.4 NNW 24 37 13 20 1014.9 1014.9 0.0
27/02:00pm 17.5 13.9 12.0 70 3.0 NNW 22 32 12 17 1015.1 1015.1 0.0
27/01:30pm 18.5 14.7 12.3 67 3.4 NNW 24 33 13 18 1015.4 1015.4 0.0
27/01:00pm 18.3 14.4 12.1 67 3.4 NW 24 30 13 16 1015.8 1015.8 0.0
27/12:30pm 18.2 14.2 11.7 66 3.6 NW 24 35 13 19 1016.2 1016.2 0.0
27/12:00pm 17.7 12.9 11.7 68 3.3 NW 28 35 15 19 1016.7 1016.7 0.0
27/11:30am 17.2 11.8 12.1 72 2.8 NW 32 41 17 22 1017.1 1017.1 0.0
27/11:00am 16.6 11.4 11.7 73 2.7 NW 30 41 16 22 1017.3 1017.3 0.0
27/10:30am 16.1 10.5 11.5 74 2.5 NW 32 43 17 23 1017.4 1017.4 0.0
27/10:00am 15.7 10.8 11.3 75 2.4 NW 28 44 15 24 1017.4 1017.4 0.0
27/09:30am 15.1 9.6 10.7 75 2.3 NW 30 44 16 24 1017.5 1017.5 0.0
27/09:00am 13.9 9.4 9.9 77 2.1 NW 24 37 13 20 1017.4 1017.4 0.0
27/08:30am 13.0 8.3 9.4 79 1.8 NNW 24 32 13 17 1017.2 1017.2 0.0
27/08:00am 12.8 8.0 8.9 77 2.0 NNW 24 35 13 19 1016.8 1016.8 0.0
27/07:30am 12.8 8.0 8.9 77 2.0 NNW 24 37 13 20 1016.7 1016.7 0.0
27/07:00am 13.0 8.3 9.1 77 2.0 NNW 24 35 13 19 1016.6 1016.6 0.0
27/06:30am 13.0 8.2 8.9 76 2.1 NNW 24 35 13 19 1016.4 1016.4 0.0
27/06:00am 13.2 8.8 9.1 76 2.1 NNW 22 43 12 23 1016.6 1016.6 0.0
27/05:30am 12.3 7.8 8.6 78 1.8 NNW 22 32 12 17 1016.7 1016.7 0.0
27/05:00am 12.4 7.9 8.5 77 1.9 N 22 32 12 17 1016.7 1016.7 0.0
27/04:30am 12.6 8.1 8.5 76 2.0 N 22 33 12 18 1016.8 1016.8 0.0
27/04:00am 13.0 8.5 8.7 75 2.2 N 22 32 12 17 1017.2 1017.2 0.0
27/03:30am 13.3 8.6 9.2 76 2.1 N 24 35 13 19 1017.4 1017.4 0.0
27/03:00am 13.6 9.4 9.6 77 2.0 N 22 32 12 17 1017.7 1017.7 0.0
27/02:30am 13.6 9.0 9.5 76 2.1 N 24 39 13 21 1018.1 1018.1 0.0
27/02:00am 13.6 8.6 9.5 76 2.1 N 26 39 14 21 1018.5 1018.5 0.0
27/01:30am 13.6 9.6 9.1 74 2.3 N 20 35 11 19 1018.6 1018.6 0.0
27/01:00am 13.6 8.9 9.1 74 2.3 N 24 39 13 21 1018.9 1018.9 0.0
27/12:30am 13.5 8.3 9.0 74 2.3 N 26 37 14 20 1019.1 1019.1 0.0
27/12:00am 13.5 8.3 9.0 74 2.3 N 26 37 14 20 1019.4 1019.4 0.0
 
Date/Time
EST
Temp
°C
App
Temp
°C
Dew
Point
Rel
Hum
%
Delta-T
°C
Wind Press
QNH
hPa
Press
MSL
hPa
Rain
since 9 am
mm
Dir
 
Spd
km/h
Gust
km/h
Spd
kts
Gust
kts
26/11:30pm 13.6 8.1 9.1 74 2.3 N 28 39 15 21 1019.7 1019.7 0.0
26/11:00pm 13.4 8.7 9.1 75 2.2 N 24 35 13 19 1019.9 1019.9 0.0
26/10:30pm 13.1 9.1 9.0 76 2.1 N 20 28 11 15 1020.2 1020.2 0.0
26/10:00pm 13.3 9.5 9.2 76 2.1 N 19 24 10 13 1020.5 1020.5 0.0
26/09:30pm 13.4 10.0 9.3 76 2.1 N 17 22 9 12 1020.9 1020.9 0.0
26/09:00pm 13.4 10.5 9.6 78 1.9 NNE 15 19 8 10 1020.9 1020.9 0.0
26/08:30pm 13.2 9.9 9.6 79 1.8 NNE 17 22 9 12 1021.1 1021.1 0.0
26/08:00pm 13.2 9.6 10.0 81 1.6 NNE 19 24 10 13 1021.3 1021.3 0.0
26/07:30pm 13.1 9.6 10.3 83 1.5 NE 19 24 10 13 1021.7 1021.7 0.0
26/07:00pm 13.2 10.1 10.4 83 1.5 NE 17 20 9 11 1021.8 1021.8 0.0
26/06:30pm 13.0 10.6 10.2 83 1.4 NE 13 17 7 9 1021.9 1021.9 0.0
26/06:00pm 13.2 10.5 10.2 82 1.5 NE 15 19 8 10 1022.1 1022.1 0.0
26/05:30pm 13.3 11.2 9.7 79 1.8 NE 11 15 6 8 1022.3 1022.3 0.0
26/05:00pm 13.8 10.5 9.5 75 2.2 NE 17 22 9 12 1022.4 1022.4 0.0
26/04:30pm 13.8 10.8 9.3 74 2.3 ENE 15 20 8 11 1022.4 1022.4 0.0
26/04:00pm 14.2 11.2 9.4 73 2.5 ENE 15 19 8 10 1022.7 1022.7 0.0
26/03:30pm 15.0 12.6 10.0 72 2.6 ENE 13 19 7 10 1023.0 1023.0 0.0
26/03:00pm 15.1 12.2 9.7 70 2.8 ENE 15 20 8 11 1023.0 1023.0 0.0
26/02:30pm 15.3 12.1 9.9 70 2.8 ENE 17 20 9 11 1023.5 1023.5 0.0
26/02:00pm 15.2 11.8 9.3 68 3.0 ENE 17 20 9 11 1023.9 1023.9 0.0
26/01:30pm 15.4 12.1 9.7 69 3.0 ENE 17 20 9 11 1024.4 1024.4 0.0
26/01:00pm 16.1 13.4 8.8 62 3.7 NE 13 19 7 10 1024.9 1024.9 0.0
26/12:30pm 17.6 15.5 8.2 54 4.8 N 9 15 5 8 1025.5 1025.5 0.0
26/12:00pm 15.5 13.5 8.5 63 3.5 N 9 13 5 7 1026.1 1026.1 0.0
26/11:30am 14.7 11.7 7.7 63 3.5 N 13 19 7 10 1026.9 1026.9 0.0
26/11:00am 15.4 11.1 7.2 58 4.0 N 19 26 10 14 1027.4 1027.4 0.0
26/10:30am 14.2 10.3 7.0 62 3.5 N 17 30 9 16 1027.4 1027.4 0.0
26/10:00am 12.7 8.7 6.7 67 2.9 N 17 24 9 13 1027.6 1027.6 0.0
26/09:30am 12.1 8.0 6.4 68 2.7 N 17 22 9 12 1027.7 1027.7 0.0
26/09:00am 11.3 7.2 6.2 71 2.4 N 17 24 9 13 1027.8 1027.8 0.0
26/08:30am 9.8 5.6 5.6 75 1.9 N 17 22 9 12 1027.8 1027.8 0.0
26/08:00am 9.7 5.5 5.7 76 1.8 N 17 22 9 12 1027.8 1027.8 0.0
26/07:30am 9.5 6.4 5.5 76 1.8 N 11 17 6 9 1027.7 1027.7 0.0
26/07:00am 9.9 9.0 6.1 77 1.7 CALM 0 6 0 3 1027.6 1027.6 0.0
26/06:30am 9.3 5.9 6.0 80 1.5 N 13 17 7 9 1027.4 1027.4 0.0
26/06:00am 8.2 5.0 5.3 82 1.3 N 11 15 6 8 1027.4 1027.4 0.0
26/05:30am 8.4 5.2 5.3 81 1.4 N 11 13 6 7 1027.5 1027.5 0.0
26/05:00am 8.7 4.9 5.8 82 1.3 N 15 20 8 11 1027.5 1027.5 0.0
26/04:30am 6.9 4.2 3.9 81 1.3 N 7 11 4 6 1027.5 1027.5 0.0
26/04:00am 8.2 5.4 5.1 81 1.4 N 9 11 5 6 1027.6 1027.6 0.0
26/03:30am 9.1 5.7 5.8 80 1.5 N 13 17 7 9 1027.7 1027.7 0.0
26/03:00am 9.4 5.7 6.3 81 1.4 NNW 15 17 8 9 1028.0 1028.0 0.0
26/02:30am 9.5 5.5 6.8 83 1.3 NNW 17 22 9 12 1028.1 1028.1 0.0
26/02:00am 9.2 5.7 7.0 86 1.0 N 15 19 8 10 1028.4 1028.4 0.0
26/01:30am 8.8 5.6 6.8 87 0.9 N 13 17 7 9 1028.4 1028.4 0.0
26/01:00am 8.2 5.5 5.8 85 1.1 NNW 9 11 5 6 1028.4 1028.4 0.0
26/12:30am 8.2 5.5 5.8 85 1.1 N 9 13 5 7 1028.7 1028.7 0.0
26/12:00am 8.8 5.6 6.8 87 0.9 N 13 17 7 9 1028.8 1028.8 0.0
 
Date/Time
EST
Temp
°C
App
Temp
°C
Dew
Point
Rel
Hum
%
Delta-T
°C
Wind Press
QNH
hPa
Press
MSL
hPa
Rain
since 9 am
mm
Dir
 
Spd
km/h
Gust
km/h
Spd
kts
Gust
kts
25/11:30pm 8.6 5.7 6.6 87 0.9 N 11 13 6 7 1028.8 1028.8 0.0
25/11:00pm 9.1 6.4 7.2 88 0.9 NNE 11 13 6 7 1028.6 1028.6 0.0
25/10:30pm 10.2 7.4 8.5 89 0.8 NNE 13 13 7 7 1028.9 1028.9 0.0
25/10:00pm 10.7 8.0 9.0 89 0.8 NE 13 15 7 8 1029.0 1029.0 0.0
25/09:30pm 10.8 8.1 9.1 89 0.8 NNE 13 15 7 8 1029.2 1029.2 0.0
25/09:00pm 9.9 7.0 8.0 88 0.9 NNE 13 15 7 8 1029.3 1029.3 0.0
25/08:30pm 9.3 6.2 7.1 86 1.0 NNE 13 15 7 8 1029.2 1029.2 0.0
25/08:00pm 9.1 6.2 6.7 85 1.1 NNE 11 13 6 7 1029.1 1029.1 0.0
25/07:30pm 9.1 6.6 6.5 84 1.2 NE 9 11 5 6 1028.9 1028.9 0.0
25/07:00pm 9.3 7.7 6.4 82 1.3 NE 4 7 2 4 1028.8 1028.8 0.0
25/06:30pm 10.1 9.3 6.6 79 1.6 CALM 0 0 0 0 1028.6 1028.6 0.0
25/06:00pm 11.2 10.5 6.9 75 2.0 CALM 0 0 0 0 1028.5 1028.5 0.0
25/05:30pm 12.1 11.4 7.0 71 2.5 CALM 0 0 0 0 1028.3 1028.3 0.0
25/05:00pm 13.8 13.4 8.2 69 2.8 CALM 0 0 0 0 1028.1 1028.1 0.0
25/04:30pm 14.6 14.3 8.5 67 3.1 CALM 0 0 0 0 1027.9 1027.9 0.0
25/04:00pm 15.1 13.8 9.2 68 3.0 WSW 6 7 3 4 1027.9 1027.9 0.0
25/03:30pm 15.5 14.0 9.0 65 3.3 W 7 11 4 6 1027.8 1027.8 0.0
25/03:00pm 16.3 14.5 9.3 63 3.6 W 9 11 5 6 1027.8 1027.8 0.0
25/02:30pm 16.4 13.9 8.1 58 4.2 W 11 15 6 8 1027.9 1027.9 0.0
25/02:00pm 16.4 13.5 8.1 58 4.2 W 13 17 7 9 1028.0 1028.0 0.0
25/01:30pm 16.6 13.7 8.3 58 4.2 WNW 13 17 7 9 1028.2 1028.2 0.0
25/01:00pm 16.5 13.7 8.5 59 4.1 WNW 13 17 7 9 1028.5 1028.5 0.0
25/12:30pm 17.0 13.2 7.6 54 4.7 NW 17 22 9 12 1028.9 1028.9 0.0
25/12:00pm 16.7 12.3 7.6 55 4.5 NW 20 28 11 15 1029.3 1029.3 0.0
25/11:30am 16.1 11.7 7.6 57 4.3 NW 20 26 11 14 1029.7 1029.7 0.0
25/11:00am 15.6 11.3 7.9 60 3.8 NW 20 26 11 14 1029.9 1029.9 0.0
25/10:30am 14.8 10.5 7.8 63 3.5 NW 20 28 11 15 1030.0 1030.0 0.0
25/10:00am 13.8 9.3 7.1 64 3.2 NW 20 28 11 15 1029.9 1029.9 0.0
25/09:30am 12.8 8.2 6.6 66 3.0 NW 20 26 11 14 1029.9 1029.9 0.0
25/09:00am 11.9 6.8 6.0 67 2.7 NW 22 30 12 16 1029.9 1029.9 0.0
25/08:30am 10.9 5.4 6.1 72 2.2 NNW 24 32 13 17 1029.8 1029.8 0.0
25/08:00am 9.6 5.0 5.8 77 1.7 NW 19 28 10 15 1030.0 1030.0 0.0
25/07:30am 9.2 5.0 5.8 79 1.6 NW 17 22 9 12 1029.8 1029.8 0.0
25/07:00am 9.0 5.2 5.6 79 1.5 NW 15 20 8 11 1029.6 1029.6 0.0
25/06:30am 9.3 5.1 5.5 77 1.7 NW 17 20 9 11 1029.4 1029.4 0.0
25/06:00am 9.9 5.7 5.7 75 1.9 NW 17 22 9 12 1029.1 1029.1 0.0
25/05:30am 10.5 6.3 5.9 73 2.1 NNW 17 20 9 11 1029.1 1029.1 0.0
25/05:00am 10.1 6.7 5.9 75 1.9 NNW 13 19 7 10 1029.0 1029.0 0.0
25/04:30am 10.6 6.4 5.8 72 2.2 NW 17 22 9 12 1028.9 1028.9 0.0
25/04:00am 10.8 7.4 5.8 71 2.3 NNW 13 20 7 11 1028.9 1028.9 0.0
25/03:30am 10.4 6.3 6.4 76 1.9 NW 17 22 9 12 1028.6 1028.6 0.0
25/03:00am 9.3 6.7 5.9 79 1.5 NNW 9 13 5 7 1028.7 1028.7 0.0
25/02:30am 9.7 7.1 5.9 77 1.7 NNW 9 13 5 7 1028.8 1028.8 0.0
25/02:00am 10.2 7.2 6.2 76 1.8 NNW 11 15 6 8 1028.9 1028.9 0.0
25/01:30am 10.3 7.7 6.3 76 1.9 NW 9 13 5 7 1028.8 1028.8 0.0
25/01:00am 10.7 7.0 6.5 75 2.0 NW 15 20 8 11 1028.9 1028.9 0.0
25/12:30am 10.7 7.0 6.5 75 2.0 NNW 15 19 8 10 1029.0 1029.0 0.0
25/12:00am 10.8 7.5 6.6 75 2.0 NNW 13 20 7 11 1029.1 1029.1 0.0
 
Date/Time
EST
Temp
°C
App
Temp
°C
Dew
Point
Rel
Hum
%
Delta-T
°C
Wind Press
QNH
hPa
Press
MSL
hPa
Rain
since 9 am
mm
Dir
 
Spd
km/h
Gust
km/h
Spd
kts
Gust
kts
24/11:30pm 10.7 7.2 7.0 78 1.8 NNW 15 22 8 12 1029.0 1029.0 0.0
24/11:00pm 9.9 6.4 7.3 84 1.2 NNW 15 19 8 10 1029.2 1029.2 0.0
24/10:30pm 8.8 6.0 6.8 87 0.9 NNW 11 13 6 7 1029.7 1029.7 0.0
24/10:00pm 8.5 5.9 6.3 86 1.0 NW 9 11 5 6 1029.7 1029.7 0.0

Other Formats:

Comma delimited format used in spreadsheet applications
http://www.bom.gov.au/fwo/IDV60801/IDV60801.94826.axf

JavaScript Object Notation format (JSON) in row-major order
http://www.bom.gov.au/fwo/IDV60801/IDV60801.94826.json